Tiempo atmosférico en la estación meteorológica de La Riba de Escalote, Soria (1042 m.)



Fecha
DESCASC
Temp. máxima en grados centígrados (hora)
DESCASC
Temp. mínima en grados centígrados (hora)
DESCASC
Temp. media en grados centígrados
DESCASC
Racha de viento máxima en m/sg (hora)
DESCASC
Velocidad máxima media en intervalos de 10 minutos(hora)
DESCASC
Precipitaciones diarias en mm
DESCASC
Precipitaciones de 00:00 a 06:00 en mm
DESCASC
Precipitaciones de 06:00 a 12:00 en mm
DESCASC
Precipitaciones de 12:00 a 18:00 en mm
DESCASC
Precipitaciones de 18:00 a 24:00 en mm
DESCASC
08-12-2019 7.5 (13:10) -1.9 (07:50) 2.8 8.89 (22:30) 5.83 (22:30) 2.2 0 0 2.2 0
07-12-2019 11.3 (15:50) -1.8 (08:30) 4.8 5 (13:50) 3.61 (14:00) 0.2 0 0.2 0 0
06-12-2019 10.7 (16:10) 0.8 (23:59) 5.7 3.61 (11:40) 2.5 (16:30) 0 0 0 0 0
05-12-2019 8.6 (15:10) 3.6 (00:00) 6.1 11.11 (14:40) 8.61 (14:40) 0.2 0.2 0 0 0
04-12-2019 8.4 (16:10) 0.8 (00:00) 4.6 8.33 (18:10) 6.39 (18:10) 2.4 2.4 0 0 0
03-12-2019 2.3 (13:00) -5.1 (-00:0) -1.4 9.17 (13:30) 7.22 (13:20) 0.2 0 0 0 0.2
02-12-2019 7.4 (14:00) -0.3 (00:00) 3.6 13.89 (11:40) 10.83 (11:40) 0 0 0 0 0
01-12-2019 7.2 (13:10) 0.8 (00:00) 4 10.83 (10:50) 7.78 (10:20) 0 0 0 0 0
30-11-2019 11.7 (11:00) 4.2 (00:00) 7.9 16.11 (18:10) 11.67 (18:20) 3.2 0.2 0 1.2 1.8
29-11-2019 11.4 (14:20) 6.1 (00:00) 8.7 10.28 (00:50) 7.22 (00:50) 0.2 0 0 0.2 0
28-11-2019 9.6 (11:00) 6.1 (08:20) 7.9 16.67 (03:00) 11.39 (03:00) 0.2 0 0 0 0.2
27-11-2019 11.3 (15:00) 6.4 (00:00) 8.9 18.06 (04:10) 12.5 (04:10) 0 0 0 0 0
26-11-2019 10.7 (22:50) 5.7 (00:00) 8.2 18.33 (17:50) 13.89 (17:30) 0 0 0 0 0
25-11-2019 12 (14:00) 4.7 (01:20) 8.3 16.39 (08:00) 11.94 (02:20) 1 1 0 0 0
24-11-2019 7.1 (15:20) 2.4 (00:00) 4.8 18.33 (00:10) 13.61 (00:50) 0.4 0 0 0 0.4
23-11-2019 7.3 (15:00) 3 (00:00) 5.2 23.61 (08:50) 17.5 (08:30) 1.4 1.4 0 0 0
22-11-2019 9.2 (17:40) 3.8 (00:00) 6.5 23.33 (19:30) 15.56 (12:10) 3.6 0 0.2 1.6 1.8
21-11-2019 7.6 (14:40) 1.8 (00:00) 4.7 11.39 (04:50) 8.89 (04:50) 0 0 0 0 0
20-11-2019 7.2 (15:10) -1.3 (06:00) 2.9 14.72 (15:50) 11.11 (15:40) 0.6 0 0 0 0.6
19-11-2019 7.7 (14:30) -3.3 (-00:0) 2.2 8.89 (14:00) 6.39 (15:00) 0 0 0 0 0
18-11-2019 5.7 (15:50) 0.4 (00:00) 3 15 (11:00) 11.11 (10:50) 0 0 0 0 0
17-11-2019 5.9 (18:50) 0.4 (00:00) 3.2 13.89 (19:20) 10.56 (19:20) 10 0 1.2 7 1.8
16-11-2019 4.4 (15:00) -0.8 (-00:0) 1.8 11.67 (14:50) 8.89 (14:50) 0.8 0 0.8 0 0
15-11-2019 3.6 (15:30) 0.2 (00:00) 1.9 15.28 (12:50) 10.83 (11:50) 2.6 0.2 0 0.4 2
14-11-2019 8 (00:30) 0.5 (00:00) 4.3 20 (06:40) 12.78 (06:30) 4.6 1.2 2.8 0.2 0.4
13-11-2019 10.1 (14:50) 5.1 (00:00) 7.6 15.56 (06:30) 10.83 (06:00) 14.4 11.8 2.6 0 0
12-11-2019 6.9 (13:30) 1.1 (00:00) 4 12.78 (10:50) 10.28 (10:50) 2.2 0 0 0 2.2
11-11-2019 7.5 (15:20) 1.5 (00:30) 4.5 14.72 (16:40) 10.28 (15:50) 0.2 0 0 0.2 0

Gráficas

Temp. máximas Temp. mínimas Temp. medias Precipitaciones Rachas de viento máximas Velocidades máximas media en intervalos de 10 minutos

Datos horarios

Fecha y hora oficial Temperatura (ºC) Velocidad del viento (km/h) Dirección del viento Racha (km/h) Dirección de racha Precipitación (mm) Presión (hPa) Tendencia (hPa) Humedad (%)
2019-12-10 23:00:00 2.2 2 Sudeste 5 Oeste 0 -- -- 86
2019-12-10 22:00:00 3 0 Calma 8 Oeste 0 -- -- 84
2019-12-10 21:00:00 3.5 5 Noroeste 9 Oeste 0 -- -- 83
2019-12-10 20:00:00 4.4 5 Oeste 8 Oeste 0 -- -- 83
2019-12-10 19:00:00 5.8 2 Noroeste 11 Oeste 0 -- -- 78
2019-12-10 18:00:00 6.7 3 Oeste 15 Norte 0 -- -- 74
2019-12-10 17:00:00 8.6 8 Noroeste 15 Noroeste 0 -- -- 68
2019-12-10 16:00:00 9.6 9 Norte 21 Noroeste 0 -- -- 64
2019-12-10 15:00:00 10.6 18 Noroeste 26 Noroeste 0 -- -- 51
2019-12-10 14:00:00 9.3 16 Noroeste 24 Noroeste 0 -- -- 60
2019-12-10 13:00:00 8 14 Noroeste 21 Noroeste 0 -- -- 68
2019-12-10 12:00:00 4.9 7 Este 13 Norte 0 -- -- 90
2019-12-10 11:00:00 3.6 3 Nordeste 7 Nordeste 0 -- -- 97
2019-12-10 10:00:00 1.4 0 Calma 9 Oeste 0 -- -- 98
2019-12-10 09:00:00 -1.1 3 Oeste 6 Noroeste 0 -- -- 98
2019-12-10 08:00:00 -1 6 Noroeste 8 Norte 0 -- -- 94
2019-12-10 07:00:00 0.7 3 Noroeste 8 Noroeste 0 -- -- 89
2019-12-10 06:00:00 0.9 0 Calma 9 Noroeste 0 -- -- 94
2019-12-10 05:00:00 -0.2 8 Noroeste 15 Noroeste 0 -- -- 94
2019-12-10 04:00:00 -0.3 3 Oeste 8 Oeste 0 -- -- 95
2019-12-10 03:00:00 0.4 3 Noroeste 9 Oeste 0 -- -- 93
2019-12-10 02:00:00 1 7 Oeste 13 Noroeste 0 -- -- 92
2019-12-10 01:00:00 2.2 8 Noroeste 23 Noroeste 0 -- -- 90
2019-12-10 00:00:00 2.7 18 Oeste 29 Noroeste 0 -- -- 87
2019-12-09 23:00:00 3.4 23 Noroeste 32 Noroeste 0 -- -- 84
2019-12-09 22:00:00 3.3 12 Oeste 26 Oeste 0 -- -- 85
2019-12-09 21:00:00 4.2 21 Noroeste 40 Noroeste 0 -- -- 83
2019-12-09 20:00:00 4.9 25 Noroeste 37 Oeste 0 -- -- 82
2019-12-09 19:00:00 4.7 12 Noroeste 47 Noroeste 0 -- -- 82
2019-12-09 18:00:00 5.3 18 Noroeste 44 Noroeste 0 -- -- 80
2019-12-09 17:00:00 7.2 30 Noroeste 46 Noroeste 0 -- -- 71
2019-12-09 16:00:00 8.3 26 Noroeste 44 Noroeste 0 -- -- 65
2019-12-09 15:00:00 8.3 25 Noroeste 50 Noroeste 0 -- -- 64
2019-12-09 14:00:00 7.9 39 Noroeste 51 Noroeste 0 -- -- 66
2019-12-09 13:00:00 6.6 24 Noroeste 44 Noroeste 0 -- -- 84
2019-12-09 12:00:00 5.9 28 Noroeste 41 Oeste 0 -- -- 88
2019-12-09 11:00:00 5 28 Noroeste 37 Noroeste 0 -- -- 92
2019-12-09 10:00:00 4.9 19 Noroeste 28 Noroeste 0 -- -- 90
2019-12-09 09:00:00 3.6 3 Este 39 Noroeste 0 -- -- 95
2019-12-09 08:00:00 4.2 22 Noroeste 36 Oeste 0 -- -- 95
2019-12-09 07:00:00 4.3 19 Noroeste 44 Noroeste 0 -- -- 94
2019-12-09 06:00:00 5.5 27 Noroeste 43 Noroeste 0 -- -- 93
2019-12-09 05:00:00 5.5 35 Noroeste 47 Noroeste 0 -- -- 93
2019-12-09 04:00:00 5.5 16 Noroeste 27 Noroeste 0 -- -- 96
2019-12-09 03:00:00 4.9 5 Noroeste 26 Oeste 0 -- -- 95
2019-12-09 02:00:00 5.5 18 Noroeste 35 Noroeste 0 -- -- 97
2019-12-09 01:00:00 6.8 23 Noroeste 31 Noroeste 0 -- -- 98
2019-12-09 00:00:00 7.1 13 Noroeste 21 Oeste 0 -- -- 100
2019-12-08 23:00:00 7.2 15 Noroeste 32 Noroeste 0 -- -- 100
2019-12-08 22:00:00 6.6 8 Noroeste 19 Noroeste 0 -- -- 100
2019-12-08 21:00:00 6.3 8 Noroeste 19 Noroeste 0 -- -- 100
2019-12-08 20:00:00 6.6 5 Noroeste 13 Noroeste 0 -- -- 99
2019-12-08 19:00:00 6.5 5 Norte 10 Noroeste 0 -- -- 98
2019-12-08 18:00:00 6.4 0 Calma 7 Norte 0.6 -- -- 97
2019-12-08 17:00:00 7.2 5 Norte 15 Noroeste 0.4 -- -- 96
2019-12-08 16:00:00 6.8 3 Oeste 16 Noroeste 1.2 -- -- 96
2019-12-08 15:00:00 6.7 11 Noroeste 18 Oeste 0 -- -- 93
2019-12-08 14:00:00 7 10 Noroeste 15 Norte 0 -- -- 88
2019-12-08 13:00:00 7.4 9 Noroeste 13 Noroeste 0 -- -- 88
2019-12-08 12:00:00 6.1 9 Norte 14 Noroeste 0 -- -- 93
2019-12-08 11:00:00 4.2 0 Calma 4 Este 0 -- -- 99
2019-12-08 10:00:00 1.2 3 Sudeste 4 Este 0 -- -- 99
2019-12-08 09:00:00 -1.3 0 Calma 4 Oeste 0 -- -- 99
2019-12-08 08:00:00 -1.9 3 Oeste 5 Oeste 0 -- -- 98
2019-12-08 07:00:00 -1.3 2 Sudeste 3 Sudeste 0 -- -- 98
2019-12-08 06:00:00 -0.8 0 Calma 4 Sudeste 0 -- -- 97
2019-12-08 05:00:00 -1 0 Calma 4 Oeste 0 -- -- 97
2019-12-08 04:00:00 -0.3 3 Este 4 Sudeste 0 -- -- 97
2019-12-08 03:00:00 0.3 0 Calma 3 Oeste 0 -- -- 96
2019-12-08 02:00:00 1.7 0 Calma 5 Este 0 -- -- 96
2019-12-08 01:00:00 1.3 3 Sudeste 4 Sudeste 0 -- -- 95
2019-12-08 00:00:00 1.7 0 Calma 2 Sudeste 0 -- -- 94
2019-12-07 23:00:00 2.6 0 Calma 3 Oeste 0 -- -- 93
2019-12-07 22:00:00 3.2 0 Calma 4 Oeste 0 -- -- 92
2019-12-07 21:00:00 4.3 2 Oeste 3 Oeste 0 -- -- 90
2019-12-07 20:00:00 5 0 Calma 11 Oeste 0 -- -- 88
2019-12-07 19:00:00 6.5 10 Oeste 15 Oeste 0 -- -- 84
2019-12-07 18:00:00 7.4 10 Oeste 13 Oeste 0 -- -- 83
2019-12-07 17:00:00 10.1 4 Noroeste 12 Nordeste 0 -- -- 74
2019-12-07 16:00:00 10.9 6 Norte 12 Norte 0 -- -- 69
2019-12-07 15:00:00 10.9 4 Noroeste 17 Nordeste 0 -- -- 69
2019-12-07 14:00:00 9.7 13 Nordeste 18 Nordeste 0 -- -- 78
2019-12-07 13:00:00 9.3 5 Norte 10 Norte 0 -- -- 80
2019-12-07 12:00:00 7.6 3 Norte 5 Norte 0 -- -- 92
2019-12-07 11:00:00 4.2 3 Este 6 Sudeste 0 -- -- 99
2019-12-07 10:00:00 0.5 2 Sudeste 4 Sudeste 0.2 -- -- 100
2019-12-07 09:00:00 -1.1 2 Sudeste 3 Sudeste 0 -- -- 99
2019-12-07 08:00:00 -1.5 0 Calma 5 Sudeste 0 -- -- 99
2019-12-07 07:00:00 -1.2 2 Sudeste 3 Sudeste 0 -- -- 98
2019-12-07 06:00:00 -0.5 3 Sudeste 5 Sudeste 0 -- -- 99
2019-12-07 05:00:00 -0.4 0 Calma 5 Este 0 -- -- 98
2019-12-07 04:00:00 -0.7 4 Sudeste 7 Este 0 -- -- 98
2019-12-07 03:00:00 -0.4 0 Calma 0 Calma 0 -- -- 97
2019-12-07 02:00:00 -0.1 0 Calma 2 Este 0 -- -- 96
2019-12-07 01:00:00 0.5 0 Calma 2 Este 0 -- -- 95
2019-12-07 00:00:00 0.8 0 Calma 5 Este 0 -- -- 95
2019-12-06 23:00:00 1.4 2 Sudeste 4 Sudeste 0 -- -- 94
2019-12-06 22:00:00 2.4 0 Calma 4 Noroeste 0 -- -- 92
2019-12-06 21:00:00 3.7 0 Calma 4 Sudeste 0 -- -- 88
2019-12-06 20:00:00 4.8 0 Calma 4 Oeste 0 -- -- 86
2019-12-06 19:00:00 5.9 4 Oeste 6 Oeste 0 -- -- 83
2019-12-06 18:00:00 7.9 4 Sudeste 10 Sudeste 0 -- -- 76
2019-12-06 17:00:00 9.8 6 Sudeste 12 Sudeste 0 -- -- 71
2019-12-06 16:00:00 10.3 7 Sudeste 13 Este 0 -- -- 69
2019-12-06 15:00:00 10.1 5 Noroeste 12 Nordeste 0 -- -- 75
2019-12-06 14:00:00 9.3 4 Este 11 Este 0 -- -- 76
2019-12-06 13:00:00 8.4 3 Sudeste 11 Sudeste 0 -- -- 84
2019-12-06 12:00:00 6.8 7 Sudeste 13 Sudeste 0 -- -- 96
2019-12-06 11:00:00 4.7 5 Nordeste 9 Este 0 -- -- 100
2019-12-06 10:00:00 3.4 0 Calma 11 Sudeste 0 -- -- 100
2019-12-06 09:00:00 1.9 8 Sudeste 10 Sudeste 0 -- -- 100
2019-12-06 08:00:00 2 2 Sur 6 Sudeste 0 -- -- 99
2019-12-06 07:00:00 2.1 0 Calma 3 Oeste 0 -- -- 99
2019-12-06 06:00:00 2.2 0 Calma 8 Sudeste 0 -- -- 99
2019-12-06 05:00:00 2.5 3 Sudeste 8 Sudeste 0 -- -- 98
2019-12-06 04:00:00 3.2 4 Este 10 Sudeste 0 -- -- 96
2019-12-06 03:00:00 4.2 6 Este 10 Sudoeste 0 -- -- 95
2019-12-06 02:00:00 4.5 3 Sudeste 6 Sudeste 0 -- -- 94
2019-12-06 01:00:00 4.8 2 Este 6 Sudoeste 0 -- -- 93
2019-12-06 00:00:00 4.9 0 Calma 5 Noroeste 0 -- -- 92
2019-12-05 23:00:00 4.8 3 Noroeste 4 Noroeste 0 -- -- 93
2019-12-05 22:00:00 4.9 0 Calma 3 Nordeste 0 -- -- 92
2019-12-05 21:00:00 4.9 0 Calma 5 Sudeste 0 -- -- 91
2019-12-05 20:00:00 5.2 0 Calma 10 Sur 0 -- -- 90
2019-12-05 19:00:00 5.3 5 Sudeste 13 Sudeste 0 -- -- 88
2019-12-05 18:00:00 6.6 9 Este 19 Este 0 -- -- 84
2019-12-05 17:00:00 7.9 11 Este 31 Nordeste 0 -- -- 81
2019-12-05 16:00:00 8.1 24 Este 32 Este 0 -- -- 79
2019-12-05 15:00:00 8.5 26 Nordeste 40 Este 0 -- -- 78
2019-12-05 14:00:00 7.8 26 Nordeste 32 Este 0 -- -- 81
2019-12-05 13:00:00 7.2 21 Este 26 Este 0 -- -- 83
2019-12-05 12:00:00 5.8 12 Nordeste 18 Nordeste 0 -- -- 87
2019-12-05 11:00:00 5.1 9 Nordeste 13 Nordeste 0 -- -- 90
2019-12-05 10:00:00 4.2 0 Calma 5 Nordeste 0 -- -- 94
2019-12-05 09:00:00 3.8 2 Noroeste 5 Norte 0 -- -- 93
2019-12-05 08:00:00 3.6 3 Norte 4 Sudeste 0 -- -- 93
2019-12-05 07:00:00 3.8 3 Norte 7 Norte 0 -- -- 92
2019-12-05 06:00:00 3.7 3 Oeste 9 Noroeste 0 -- -- 92
2019-12-05 05:00:00 3.7 4 Noroeste 8 Norte 0.2 -- -- 91
2019-12-05 04:00:00 4 8 Nordeste 14 Nordeste 0 -- -- 86
2019-12-05 03:00:00 4 7 Norte 17 Nordeste 0 -- -- 85
2019-12-05 02:00:00 4.1 6 Nordeste 11 Este 0 -- -- 87
2019-12-05 01:00:00 4.6 9 Este 13 Nordeste 0 -- -- 85
2019-12-05 00:00:00 4.7 3 Nordeste 9 Noroeste 0 -- -- 88
2019-12-04 23:00:00 4.9 0 Calma 9 Oeste 0 -- -- 91
2019-12-04 22:00:00 4.6 4 Oeste 13 Norte 0 -- -- 92
2019-12-04 21:00:00 4.9 5 Nordeste 12 Nordeste 0 -- -- 90
2019-12-04 20:00:00 6 3 Noroeste 8 Noroeste 0 -- -- 86
2019-12-04 19:00:00 6.5 10 Nordeste 30 Este 0 -- -- 84
2019-12-04 18:00:00 7 17 Este 23 Este 0 -- -- 81
2019-12-04 17:00:00 7.9 16 Este 28 Este 0 -- -- 77
2019-12-04 16:00:00 8.3 13 Nordeste 21 Nordeste 0 -- -- 84
2019-12-04 15:00:00 7.9 11 Nordeste 25 Nordeste 0 -- -- 85
2019-12-04 14:00:00 7.9 10 Nordeste 18 Nordeste 0 -- -- 85
2019-12-04 13:00:00 7.5 10 Nordeste 17 Nordeste 0 -- -- 86
2019-12-04 12:00:00 5.8 5 Norte 12 Nordeste 0 -- -- 93
2019-12-04 11:00:00 4.8 4 Norte 9 Noroeste 0 -- -- 96
2019-12-04 10:00:00 4 4 Noroeste 12 Oeste 0 -- -- 96
2019-12-04 09:00:00 3.3 4 Oeste 10 Oeste 0 -- -- 97
2019-12-04 08:00:00 2.4 3 Oeste 7 Oeste 0 -- -- 97
2019-12-04 07:00:00 2.1 4 Oeste 8 Oeste 0 -- -- 97
2019-12-04 06:00:00 1.7 5 Oeste 8 Oeste 0 -- -- 97
2019-12-04 05:00:00 1.4 7 Oeste 10 Oeste 0 -- -- 97
2019-12-04 04:00:00 1.1 4 Oeste 6 Oeste 0 -- -- 97
2019-12-04 03:00:00 1 2 Oeste 3 Sudeste 0 -- -- 96
2019-12-04 02:00:00 0.8 2 Sudeste 9 Este 2.4 -- -- 95
2019-12-04 01:00:00 0.9 0 Calma 9 Este 0 -- -- 94
2019-12-04 00:00:00 0.8 6 Sudeste 11 Sudeste 0.2 -- -- 94
2019-12-03 23:00:00 0.8 7 Sudeste 14 Este 0 -- -- 93
2019-12-03 22:00:00 1.1 10 Este 21 Sudeste 0 -- -- 91
2019-12-03 21:00:00 1.2 9 Sudeste 14 Este 0 -- -- 90
2019-12-03 20:00:00 1.3 9 Este 23 Este 0 -- -- 89
2019-12-03 19:00:00 1.5 15 Este 22 Este 0 -- -- 89
2019-12-03 18:00:00 1.4 13 Este 29 Este 0 -- -- 89
2019-12-03 17:00:00 1.6 15 Este 28 Este 0 -- -- 89
2019-12-03 16:00:00 1.3 19 Este 26 Este 0 -- -- 91
2019-12-03 15:00:00 0.6 21 Este 32 Este 0 -- -- 93
2019-12-03 14:00:00 0.5 22 Este 33 Sudeste 0 -- -- 90
2019-12-03 13:00:00 2.3 17 Sudeste 26 Sudeste 0 -- -- 83
2019-12-03 12:00:00 1.1 23 Sudeste 28 Sudeste 0 -- -- 87
2019-12-03 11:00:00 0.5 19 Este 24 Este 0 -- -- 91
2019-12-03 10:00:00 -2.5 0 Calma 5 Oeste 0 -- -- 98
2019-12-03 09:00:00 -4.8 2 Este 4 Oeste 0 -- -- 97
2019-12-03 08:00:00 -4.9 0 Calma 3 Sudeste 0 -- -- 96
2019-12-03 07:00:00 -4.7 2 Este 4 Oeste 0 -- -- 95
2019-12-03 06:00:00 -3.6 2 Oeste 5 Oeste 0 -- -- 96
2019-12-03 05:00:00 -3.4 0 Calma 5 Oeste 0 -- -- 95
2019-12-03 04:00:00 -3.2 2 Oeste 4 Oeste 0 -- -- 95
2019-12-03 03:00:00 -2.5 0 Calma 5 Oeste 0 -- -- 93
2019-12-03 02:00:00 -1.8 0 Calma 3 Nordeste 0 -- -- 93
2019-12-03 01:00:00 -1 0 Calma 4 Nordeste 0 -- -- 92
2019-12-03 00:00:00 -0.3 0 Calma 5 Norte 0 -- -- 90
2019-12-02 23:00:00 0.5 3 Nordeste 17 Este 0 -- -- 88
2019-12-02 22:00:00 1.5 12 Este 30 Este 0 -- -- 86
2019-12-02 21:00:00 2.3 24 Este 36 Este 0 -- -- 84
2019-12-02 20:00:00 2.6 15 Nordeste 29 Nordeste 0 -- -- 85
2019-12-02 19:00:00 3.6 21 Este 36 Este 0 -- -- 80
2019-12-02 18:00:00 4.2 18 Este 32 Nordeste 0 -- -- 76
2019-12-02 17:00:00 5.5 21 Nordeste 40 Nordeste 0 -- -- 73
2019-12-02 16:00:00 6.4 27 Nordeste 41 Nordeste 0 -- -- 67
2019-12-02 15:00:00 7 27 Nordeste 46 Nordeste 0 -- -- 70
2019-12-02 14:00:00 7.4 30 Nordeste 46 Este 0 -- -- 69
2019-12-02 13:00:00 7 31 Nordeste 50 Nordeste 0 -- -- 70
2019-12-02 12:00:00 6.4 30 Nordeste 50 Nordeste 0 -- -- 72
2019-12-02 11:00:00 5.8 23 Nordeste 33 Nordeste 0 -- -- 75
2019-12-02 10:00:00 4.5 19 Nordeste 31 Norte 0 -- -- 82
2019-12-02 09:00:00 2.6 8 Nordeste 17 Nordeste 0 -- -- 91
2019-12-02 08:00:00 2 7 Nordeste 18 Nordeste 0 -- -- 91
2019-12-02 07:00:00 2.4 8 Nordeste 21 Nordeste 0 -- -- 89
2019-12-02 06:00:00 2.9 16 Nordeste 27 Nordeste 0 -- -- 86
2019-12-02 05:00:00 3.2 12 Nordeste 18 Nordeste 0 -- -- 85
2019-12-02 04:00:00 3.3 8 Nordeste 21 Nordeste 0 -- -- 86
2019-12-02 03:00:00 3.2 16 Este 25 Este 0 -- -- 87
2019-12-02 02:00:00 3.3 17 Este 26 Este 0 -- -- 88
2019-12-02 01:00:00 4.1 14 Nordeste 21 Nordeste 0 -- -- 86
2019-12-02 00:00:00 4 9 Nordeste 20 Nordeste 0 -- -- 88
2019-12-01 23:00:00 4 8 Este 21 Este 0 -- -- 88
2019-12-01 22:00:00 4 12 Este 23 Este 0 -- -- 90
2019-12-01 21:00:00 4.4 19 Este 24 Este 0 -- -- 89
2019-12-01 20:00:00 4.1 0 Calma 7 Sudeste 0 -- -- 93
2019-12-01 19:00:00 4.3 3 Sudeste 9 Sudeste 0 -- -- 91
2019-12-01 18:00:00 5.4 8 Sudeste 12 Sudeste 0 -- -- 87
2019-12-01 17:00:00 6.4 11 Sur 17 Sur 0 -- -- 84
2019-12-01 16:00:00 6.8 10 Sur 14 Sur 0 -- -- 80
2019-12-01 15:00:00 6.8 11 Sur 23 Sudoeste 0 -- -- 78
2019-12-01 14:00:00 6.8 19 Sur 28 Sudoeste 0 -- -- 79
2019-12-01 13:00:00 6.9 17 Sudoeste 27 Sudoeste 0 -- -- 82
2019-12-01 12:00:00 6.2 23 Sudoeste 36 Sudoeste 0 -- -- 86
2019-12-01 11:00:00 4.4 24 Sudoeste 39 Sudoeste 0 -- -- 92
2019-12-01 10:00:00 3.5 21 Sur 29 Sur 0 -- -- 97
2019-12-01 09:00:00 2.4 12 Sudoeste 28 Sudoeste 0 -- -- 97
2019-12-01 08:00:00 2.2 20 Sudoeste 27 Sudoeste 0 -- -- 99
2019-12-01 07:00:00 1.4 8 Este 13 Sudeste 0 -- -- 99
2019-12-01 06:00:00 1.1 4 Sur 13 Este 0 -- -- 98
2019-12-01 05:00:00 1.4 2 Oeste 8 Oeste 0 -- -- 95
2019-12-01 04:00:00 1.6 3 Sudeste 14 Sur 0 -- -- 92
2019-12-01 03:00:00 2.2 3 Sudoeste 8 Noroeste 0 -- -- 89
2019-12-01 02:00:00 2.8 5 Oeste 15 Noroeste 0 -- -- 89
2019-12-01 01:00:00 3.3 10 Oeste 23 Oeste 0 -- -- 88
2019-12-01 00:00:00 4.2 7 Noroeste 17 Oeste 0 -- -- 86
2019-11-30 23:00:00 4.8 6 Oeste 57 Oeste 0.2 -- -- 82
2019-11-30 22:00:00 4.6 33 Oeste 54 Oeste 0.2 -- -- 83
2019-11-30 21:00:00 5.2 28 Oeste 48 Oeste 0 -- -- 83
2019-11-30 20:00:00 6.2 22 Noroeste 35 Oeste 0.4 -- -- 96
2019-11-30 19:00:00 7.1 26 Noroeste 58 Oeste 1 -- -- 94
2019-11-30 18:00:00 8.8 22 Noroeste 55 Sudoeste 1.2 -- -- 93
2019-11-30 17:00:00 10.1 35 Sudoeste 54 Sudoeste 0 -- -- 90
2019-11-30 16:00:00 10.2 33 Sudoeste 54 Sudoeste 0 -- -- 91
2019-11-30 15:00:00 10.5 33 Sudoeste 54 Sudoeste 0 -- -- 89
2019-11-30 14:00:00 11 30 Sudoeste 53 Sudoeste 0 -- -- 88
2019-11-30 13:00:00 10.7 37 Sudoeste 54 Sudoeste 0 -- -- 89
2019-11-30 12:00:00 11.7 30 Sudoeste 45 Sudoeste 0 -- -- 89
2019-11-30 11:00:00 11.7 26 Sudoeste 41 Sudoeste 0 -- -- 87
2019-11-30 10:00:00 9.8 18 Sudoeste 32 Sudoeste 0 -- -- 95
2019-11-30 09:00:00 9.4 26 Sur 40 Sudoeste 0 -- -- 95
2019-11-30 08:00:00 9.6 30 Sudoeste 44 Sudoeste 0 -- -- 92
2019-11-30 07:00:00 9.4 33 Sudoeste 44 Sudoeste 0 -- -- 94
2019-11-30 06:00:00 9.4 23 Sur 34 Sudoeste 0 -- -- 95
2019-11-30 05:00:00 9.4 26 Sudoeste 36 Sudoeste 0 -- -- 97
2019-11-30 04:00:00 9.5 23 Sudoeste 36 Sudoeste 0 -- -- 96
2019-11-30 03:00:00 9.4 26 Sudoeste 39 Sudoeste 0 -- -- 96
2019-11-30 02:00:00 8.3 8 Sur 17 Sur 0.2 -- -- 98
2019-11-30 01:00:00 7.3 2 Este 12 Sur 0 -- -- 99
2019-11-30 00:00:00 6.2 5 Sudeste 10 Sudeste 0 -- -- 98
2019-11-29 23:00:00 7 4 Sudeste 6 Nordeste 0 -- -- 97
2019-11-29 22:00:00 8.4 2 Sudeste 13 Sudoeste 0 -- -- 95
2019-11-29 21:00:00 9.4 7 Sudoeste 19 Sudoeste 0 -- -- 96
2019-11-29 20:00:00 9.5 4 Oeste 12 Oeste 0 -- -- 93
2019-11-29 19:00:00 10.4 8 Oeste 15 Sudoeste 0 -- -- 88
2019-11-29 18:00:00 10.5 6 Sudoeste 11 Oeste 0 -- -- 89
2019-11-29 17:00:00 10.9 4 Oeste 14 Noroeste 0 -- -- 93
2019-11-29 16:00:00 11 9 Noroeste 14 Noroeste 0 -- -- 95
2019-11-29 15:00:00 11.1 9 Noroeste 25 Oeste 0.2 -- -- 92
2019-11-29 14:00:00 11.2 6 Sur 10 Sur 0 -- -- 92
2019-11-29 13:00:00 10.8 10 Noroeste 17 Noroeste 0 -- -- 95
2019-11-29 12:00:00 10.8 7 Norte 13 Noroeste 0 -- -- 95
2019-11-29 11:00:00 10.4 7 Noroeste 14 Norte 0 -- -- 97
2019-11-29 10:00:00 9.7 6 Oeste 11 Noroeste 0 -- -- 97
2019-11-29 09:00:00 9.1 5 Oeste 12 Oeste 0 -- -- 95
2019-11-29 08:00:00 9.1 11 Oeste 15 Oeste 0 -- -- 95
2019-11-29 07:00:00 9.2 4 Noroeste 27 Oeste 0 -- -- 94
2019-11-29 06:00:00 9.1 13 Oeste 20 Oeste 0 -- -- 95
2019-11-29 05:00:00 9.1 4 Oeste 26 Noroeste 0 -- -- 92
2019-11-29 04:00:00 9.6 19 Oeste 33 Oeste 0 -- -- 92
2019-11-29 03:00:00 9.4 18 Oeste 30 Oeste 0 -- -- 95
2019-11-29 02:00:00 9.7 13 Oeste 28 Sudoeste 0 -- -- 89
2019-11-29 01:00:00 9.2 25 Sudoeste 37 Sudoeste 0 -- -- 89
2019-11-29 00:00:00 8.7 17 Sudoeste 39 Sudoeste 0 -- -- 89
2019-11-28 23:00:00 8.4 28 Sudoeste 41 Sudoeste 0 -- -- 91
2019-11-28 22:00:00 8.3 28 Sudoeste 44 Sudoeste 0 -- -- 92
2019-11-28 21:00:00 8.2 32 Sudoeste 46 Sudoeste 0 -- -- 92
2019-11-28 20:00:00 8 31 Sudoeste 44 Sudoeste 0.2 -- -- 92
2019-11-28 19:00:00 8.2 29 Sudoeste 38 Sudoeste 0 -- -- 90
2019-11-28 18:00:00 8 26 Sudoeste 42 Sudoeste 0 -- -- 88
2019-11-28 17:00:00 8.5 28 Sudoeste 45 Sudoeste 0 -- -- 86
2019-11-28 16:00:00 8.9 32 Sudoeste 48 Sudoeste 0 -- -- 85
2019-11-28 15:00:00 8.6 37 Sudoeste 51 Sudoeste 0 -- -- 87
2019-11-28 14:00:00 9 33 Sudoeste 42 Sudoeste 0 -- -- 85
2019-11-28 13:00:00 8.8 33 Sudoeste 45 Sudoeste 0 -- -- 85
2019-11-28 12:00:00 8.1 28 Sudoeste 40 Sudoeste 0 -- -- 88
2019-11-28 11:00:00 9.6 16 Oeste 37 Sudoeste 0 -- -- 80
2019-11-28 10:00:00 6.5 27 Sudoeste 42 Sudoeste 0 -- -- 96
2019-11-28 09:00:00 6.2 26 Sudoeste 46 Sudoeste 0 -- -- 96
2019-11-28 08:00:00 6.4 32 Sudoeste 43 Sudoeste 0 -- -- 93
2019-11-28 07:00:00 6.5 21 Sudoeste 28 Sudoeste 0 -- -- 89
2019-11-28 06:00:00 8.1 17 Oeste 34 Oeste 0 -- -- 79
2019-11-28 05:00:00 8.1 26 Oeste 38 Oeste 0 -- -- 80
2019-11-28 04:00:00 8.4 21 Oeste 58 Oeste 0 -- -- 79
2019-11-28 03:00:00 8.6 41 Oeste 60 Oeste 0 -- -- 78
2019-11-28 02:00:00 8.3 35 Oeste 54 Oeste 0 -- -- 78
2019-11-28 01:00:00 8.4 32 Oeste 52 Oeste 0 -- -- 79
2019-11-28 00:00:00 8.3 27 Oeste 44 Oeste 0 -- -- 79
2019-11-27 23:00:00 8.7 28 Oeste 41 Oeste 0 -- -- 76
2019-11-27 22:00:00 8.3 9 Oeste 44 Oeste 0 -- -- 72
2019-11-27 21:00:00 8.6 21 Oeste 44 Oeste 0 -- -- 69
2019-11-27 20:00:00 8.8 21 Oeste 36 Oeste 0 -- -- 71
2019-11-27 19:00:00 8.5 21 Oeste 34 Sudoeste 0 -- -- 80
2019-11-27 18:00:00 8.9 26 Sudoeste 35 Sudoeste 0 -- -- 80
2019-11-27 17:00:00 10.2 22 Oeste 46 Oeste 0 -- -- 60
2019-11-27 16:00:00 10.8 33 Oeste 48 Oeste 0 -- -- 58
2019-11-27 15:00:00 11.3 32 Oeste 45 Oeste 0 -- -- 57
2019-11-27 14:00:00 10.4 28 Oeste 52 Oeste 0 -- -- 63
2019-11-27 06:00:00 -- -- -- -- -- -- -- -- --
2019-11-27 05:00:00 -- -- -- -- -- -- -- -- --
2019-11-27 04:00:00 -- -- -- -- -- -- -- -- --
2019-11-27 03:00:00 9.2 27 Oeste 53 Oeste 0 -- -- 79
2019-11-27 02:00:00 9.7 29 Oeste 52 Oeste 0 -- -- 76
2019-11-27 01:00:00 10.1 28 Oeste 51 Noroeste 0 -- -- 84
2019-11-27 00:00:00 10 33 Sudoeste 53 Sudoeste 0 -- -- 92
2019-11-26 23:00:00 10.7 30 Sudoeste 51 Sudoeste 0 -- -- 91
2019-11-26 22:00:00 10.6 33 Sudoeste 53 Sudoeste 0 -- -- 93
2019-11-26 21:00:00 10.4 33 Sudoeste 54 Sudoeste 0 -- -- 94
2019-11-26 20:00:00 10.3 36 Sudoeste 59 Sudoeste 0 -- -- 94
2019-11-26 19:00:00 10.4 41 Sudoeste 64 Sudoeste 0 -- -- 92
2019-11-26 18:00:00 10.2 44 Sudoeste 66 Sudoeste 0 -- -- 93
2019-11-26 17:00:00 10.2 48 Sudoeste 64 Sudoeste 0 -- -- 92
2019-11-26 16:00:00 10.2 33 Sudoeste 60 Sur 0 -- -- 90
2019-11-26 15:00:00 10.4 34 Sudoeste 57 Sudoeste 0 -- -- 87
2019-11-26 14:00:00 9.9 44 Sudoeste 61 Sudoeste 0 -- -- 89
2019-11-26 13:00:00 9.8 37 Sudoeste 56 Sudoeste 0 -- -- 89
2019-11-26 12:00:00 9.6 39 Sudoeste 54 Sudoeste 0 -- -- 91
2019-11-26 11:00:00 9.3 38 Sur 47 Sur 0 -- -- 92
2019-11-26 10:00:00 8.1 33 Sudoeste 44 Sudoeste 0 -- -- 95
2019-11-26 09:00:00 7.5 29 Sur 37 Sudoeste 0 -- -- 96
2019-11-26 08:00:00 6.8 19 Sur 31 Sur 0 -- -- 96
2019-11-26 07:00:00 6.7 5 Sudeste 21 Sudoeste 0 -- -- 97
2019-11-26 06:00:00 6 18 Sudoeste 26 Sudoeste 0 -- -- 97
2019-11-26 05:00:00 6 19 Sur 25 Sur 0 -- -- 96
2019-11-26 04:00:00 6.1 8 Noroeste 16 Sudeste 0 -- -- 96
2019-11-26 03:00:00 6.6 0 Calma 22 Sudoeste 0 -- -- 92
2019-11-26 02:00:00 7.9 11 Oeste 14 Oeste 0 -- -- 86
2019-11-26 01:00:00 7.7 14 Oeste 30 Noroeste 0 -- -- 88
2019-11-26 00:00:00 8.1 14 Oeste 23 Noroeste 0 -- -- 89
2019-11-25 23:00:00 8.8 7 Oeste 14 Oeste 0 -- -- 89
2019-11-25 22:00:00 8.8 11 Noroeste 23 Oeste 0 -- -- 87
2019-11-25 21:00:00 8.4 8 Noroeste 14 Oeste 0 -- -- 89
2019-11-25 20:00:00 8.8 5 Oeste 10 Oeste 0 -- -- 85
2019-11-25 19:00:00 9 0 Calma 17 Oeste 0 -- -- 81
2019-11-25 18:00:00 9.5 11 Oeste 41 Oeste 0 -- -- 79
2019-11-25 17:00:00 10.8 24 Oeste 43 Oeste 0 -- -- 75
2019-11-25 16:00:00 11.6 28 Oeste 47 Oeste 0 -- -- 70
2019-11-25 15:00:00 11.5 32 Oeste 56 Oeste 0 -- -- 74
2019-11-25 14:00:00 12 31 Oeste 46 Oeste 0 -- -- 74
2019-11-25 13:00:00 11.2 28 Oeste 44 Oeste 0 -- -- 79
2019-11-25 12:00:00 10.7 32 Oeste 53 Oeste 0 -- -- 82
2019-11-25 11:00:00 10.4 27 Oeste 41 Oeste 0 -- -- 83
2019-11-25 10:00:00 8.4 2 Noroeste 27 Sudoeste 0 -- -- 90
2019-11-25 09:00:00 8.3 18 Oeste 50 Oeste 0 -- -- 86
2019-11-25 08:00:00 8.8 41 Oeste 59 Oeste 0 -- -- 84
2019-11-25 07:00:00 8.6 26 Oeste 53 Oeste 0 -- -- 88
2019-11-25 06:00:00 8.4 29 Oeste 46 Oeste 0 -- -- 88
2019-11-25 05:00:00 8 21 Sudoeste 50 Oeste 0 -- -- 91
2019-11-25 04:00:00 6.3 31 Sudoeste 50 Sudoeste 0 -- -- 95
2019-11-25 03:00:00 5.9 36 Sudoeste 55 Sudoeste 0.4 -- -- 95
2019-11-25 02:00:00 5.2 42 Sudoeste 52 Sudoeste 0.2 -- -- 95
2019-11-25 01:00:00 4.8 36 Sudoeste 49 Sudoeste 0.4 -- -- 94
2019-11-25 00:00:00 4.8 33 Sur 43 Sudoeste 0 -- -- 93
2019-11-24 23:00:00 4.9 30 Sudoeste 37 Sudoeste 0.4 -- -- 90
2019-11-24 22:00:00 5.4 2 Sudeste 8 Oeste 0 -- -- 82
2019-11-24 21:00:00 5.6 0 Calma 12 Oeste 0 -- -- 81
2019-11-24 20:00:00 5.7 8 Oeste 21 Oeste 0 -- -- 79
2019-11-24 19:00:00 5.1 11 Oeste 19 Noroeste 0 -- -- 82
2019-11-24 18:00:00 5.8 15 Oeste 28 Oeste 0 -- -- 77
2019-11-24 17:00:00 6.3 17 Oeste 35 Oeste 0 -- -- 73
2019-11-24 16:00:00 6.5 25 Noroeste 40 Noroeste 0 -- -- 70
2019-11-24 15:00:00 6.2 27 Oeste 43 Noroeste 0 -- -- 70
2019-11-24 14:00:00 6.3 31 Noroeste 49 Oeste 0 -- -- 71
2019-11-24 13:00:00 5.3 35 Noroeste 51 Noroeste 0 -- -- 75
2019-11-24 12:00:00 5 30 Noroeste 43 Noroeste 0 -- -- 79
2019-11-24 11:00:00 3.7 28 Noroeste 38 Oeste 0 -- -- 84
2019-11-24 10:00:00 3.5 24 Noroeste 37 Oeste 0 -- -- 88
2019-11-24 09:00:00 3.1 24 Noroeste 37 Noroeste 0 -- -- 89
2019-11-24 08:00:00 3.1 24 Noroeste 35 Noroeste 0 -- -- 88
2019-11-24 07:00:00 3.2 22 Noroeste 40 Noroeste 0 -- -- 88
2019-11-24 06:00:00 3.2 27 Noroeste 41 Noroeste 0 -- -- 89
2019-11-24 05:00:00 3 26 Noroeste 37 Oeste 0 -- -- 90
2019-11-24 04:00:00 2.6 22 Noroeste 37 Oeste 0 -- -- 90
2019-11-24 03:00:00 2.9 28 Oeste 44 Noroeste 0 -- -- 89
2019-11-24 02:00:00 3.3 32 Oeste 55 Noroeste 0 -- -- 87
2019-11-24 01:00:00 3.7 46 Oeste 66 Noroeste 0 -- -- 86
2019-11-24 00:00:00 4.4 54 Noroeste 74 Oeste 0 -- -- 82
2019-11-23 23:00:00 4.5 39 Noroeste 59 Noroeste 0 -- -- 83
2019-11-23 22:00:00 5 43 Noroeste 64 Oeste 0 -- -- 82
2019-11-23 21:00:00 5.2 47 Noroeste 62 Noroeste 0 -- -- 75
2019-11-23 20:00:00 5.6 41 Oeste 59 Oeste 0 -- -- 73
2019-11-23 19:00:00 5.6 41 Noroeste 55 Oeste 0 -- -- 73
2019-11-23 18:00:00 5.7 32 Noroeste 58 Noroeste 0 -- -- 73
2019-11-23 17:00:00 6.8 46 Noroeste 65 Oeste 0 -- -- 67
2019-11-23 16:00:00 6.7 44 Oeste 63 Noroeste 0 -- -- 69
2019-11-23 15:00:00 7.3 46 Noroeste 68 Noroeste 0 -- -- 67
2019-11-23 14:00:00 6.6 50 Noroeste 72 Oeste 0 -- -- 73
2019-11-23 13:00:00 5.4 44 Noroeste 64 Oeste 0 -- -- 75
2019-11-23 12:00:00 4.6 42 Oeste 66 Oeste 0 -- -- 77
2019-11-23 11:00:00 4.1 45 Noroeste 67 Oeste 0 -- -- 81
2019-11-23 10:00:00 3.1 44 Oeste 76 Oeste 0 -- -- 84
2019-11-23 09:00:00 3.3 52 Oeste 85 Oeste 0 -- -- 85
2019-11-23 08:00:00 3.7 63 Noroeste 84 Noroeste 0 -- -- 85
2019-11-23 07:00:00 3.9 51 Oeste 68 Noroeste 0 -- -- 87
2019-11-23 06:00:00 3.4 40 Oeste 56 Oeste 0.2 -- -- 91
2019-11-23 05:00:00 3.1 44 Oeste 71 Oeste 0.2 -- -- 90
2019-11-23 04:00:00 4.5 42 Oeste 68 Oeste 0 -- -- 87
2019-11-23 03:00:00 4.6 45 Oeste 64 Oeste 0 -- -- 86
2019-11-23 02:00:00 4.6 15 Sudoeste 47 Sudoeste 0 -- -- 89
2019-11-23 01:00:00 5 36 Oeste 73 Oeste 1 -- -- 88
2019-11-23 00:00:00 6.4 27 Sudoeste 47 Sudoeste 0 -- -- 84
2019-11-22 23:00:00 6.4 22 Oeste 35 Oeste 0 -- -- 81
2019-11-22 22:00:00 6 17 Oeste 25 Oeste 0 -- -- 82
2019-11-22 21:00:00 6.3 12 Oeste 35 Oeste 0 -- -- 88
2019-11-22 20:00:00 6.5 12 Oeste 84 Oeste 1.8 -- -- 91
2019-11-22 19:00:00 9.1 33 Sudoeste 57 Sudoeste 0 -- -- 89
2019-11-22 18:00:00 9.1 42 Sudoeste 63 Sudoeste 0 -- -- 95
2019-11-22 17:00:00 9.1 42 Sudoeste 58 Sudoeste 0 -- -- 93
2019-11-22 16:00:00 8.7 34 Sudoeste 55 Sudoeste 0.2 -- -- 95
2019-11-22 15:00:00 8.3 31 Sudoeste 63 Sudoeste 1.4 -- -- 95
2019-11-22 14:00:00 7.8 45 Sur 68 Sur 0 -- -- 95
2019-11-22 13:00:00 7.5 48 Sur 76 Sur 0 -- -- 95
2019-11-22 12:00:00 7.3 54 Sur 72 Sur 0.2 -- -- 93
2019-11-22 11:00:00 6.9 45 Sur 60 Sur 0 -- -- 93
2019-11-22 10:00:00 6.5 39 Sur 58 Sur 0 -- -- 93
2019-11-22 09:00:00 6 35 Sudoeste 53 Sudoeste 0 -- -- 95
2019-11-22 08:00:00 5.5 27 Sur 46 Sudoeste 0 -- -- 97
2019-11-22 07:00:00 5 17 Sur 40 Sur 0 -- -- 97
2019-11-22 06:00:00 4.9 23 Sur 39 Sur 0 -- -- 96
2019-11-22 05:00:00 4.8 17 Sur 33 Sur 0 -- -- 96
2019-11-22 04:00:00 4.7 15 Sudoeste 24 Sudoeste 0 -- -- 94
2019-11-22 03:00:00 4.5 8 Sur 20 Sudoeste 0 -- -- 93
2019-11-22 02:00:00 4.3 12 Sur 17 Sur 0 -- -- 94
2019-11-22 01:00:00 4.1 12 Sudoeste 32 Sur 0 -- -- 94
2019-11-22 00:00:00 4.1 19 Sudoeste 28 Sudoeste 0 -- -- 93
2019-11-21 23:00:00 3.5 20 Sur 27 Sur 0 -- -- 95
2019-11-21 22:00:00 2.8 3 Noroeste 14 Sudoeste 0 -- -- 94
2019-11-21 21:00:00 3.2 8 Sur 28 Sudoeste 0 -- -- 94
2019-11-21 20:00:00 3.5 17 Sudoeste 23 Sudoeste 0 -- -- 93
2019-11-21 19:00:00 4.1 20 Sudoeste 27 Sudoeste 0 -- -- 89
2019-11-21 18:00:00 5.2 10 Sudoeste 24 Sudoeste 0 -- -- 86
2019-11-21 17:00:00 6.3 16 Sudoeste 36 Sudoeste 0 -- -- 83
2019-11-21 16:00:00 7 25 Sudoeste 37 Sudoeste 0 -- -- 80
2019-11-21 15:00:00 7 27 Sudoeste 39 Sudoeste 0 -- -- 79
2019-11-21 14:00:00 7.3 28 Sudoeste 39 Sudoeste 0 -- -- 81
2019-11-21 13:00:00 5.8 24 Sudoeste 41 Sudoeste 0 -- -- 87
2019-11-21 12:00:00 5.2 30 Sudoeste 40 Sudoeste 0 -- -- 89
2019-11-21 11:00:00 4.2 25 Sudoeste 38 Sudoeste 0 -- -- 92
2019-11-21 10:00:00 3.5 27 Sudoeste 35 Sudoeste 0 -- -- 92
2019-11-21 09:00:00 2.2 23 Sur 33 Sudoeste 0 -- -- 93
2019-11-21 08:00:00 -- -- -- -- -- -- -- -- --
2019-11-21 07:00:00 -- -- -- -- -- -- -- -- --
2019-11-21 06:00:00 -- -- -- -- -- -- -- -- --
2019-11-21 05:00:00 -- -- -- -- -- -- -- -- --
2019-11-21 04:00:00 -- -- -- -- -- -- -- -- --
2019-11-21 03:00:00 -- -- -- -- -- -- -- -- --
2019-11-21 02:00:00 -- -- -- -- -- -- -- -- --
2019-11-21 01:00:00 -- -- -- -- -- -- -- -- --
2019-11-21 00:00:00 -- -- -- -- -- -- -- -- --
2019-11-20 23:00:00 -- -- -- -- -- -- -- -- --
2019-11-20 22:00:00 -- -- -- -- -- -- -- -- --
2019-11-20 21:00:00 -- -- -- -- -- -- -- -- --
2019-11-20 20:00:00 -- -- -- -- -- -- -- -- --
2019-11-20 19:00:00 2.9 29 Sudoeste 43 Sudoeste 0.2 -- -- 91
2019-11-20 18:00:00 3.5 24 Sudoeste 40 Sudoeste 0 -- -- 88
2019-11-20 17:00:00 4.5 24 Sudoeste 40 Sudoeste 0 -- -- 81
2019-11-20 16:00:00 5.6 38 Sudoeste 53 Sudoeste 0 -- -- 75
2019-11-20 15:00:00 6.6 23 Sudoeste 42 Sudoeste 0 -- -- 75
2019-11-20 14:00:00 6.2 34 Sudoeste 45 Sudoeste 0 -- -- 75
2019-11-20 13:00:00 5.9 36 Sudoeste 50 Sudoeste 0 -- -- 77
2019-11-20 12:00:00 5.1 32 Sudoeste 48 Sudoeste 0 -- -- 82
2019-11-20 11:00:00 3.5 35 Sur 45 Sur 0 -- -- 88
2019-11-20 10:00:00 2.2 32 Sur 44 Sur 0 -- -- 95
2019-11-20 09:00:00 0.6 20 Sur 28 Sudoeste 0 -- -- 95
2019-11-20 08:00:00 0.7 15 Sur 25 Sur 0 -- -- 96
2019-11-20 07:00:00 0.1 14 Sur 22 Sur 0 -- -- 97
2019-11-20 06:00:00 -1.3 7 Este 9 Este 0 -- -- 96
2019-11-20 05:00:00 -0.6 4 Este 7 Este 0 -- -- 96
2019-11-20 04:00:00 -0.6 4 Este 8 Este 0 -- -- 95
2019-11-20 03:00:00 -0.6 4 Sudeste 8 Este 0 -- -- 95
2019-11-20 02:00:00 -0.4 4 Sudeste 9 Sudeste 0 -- -- 94
2019-11-20 01:00:00 -0.3 2 Este 6 Sudeste 0 -- -- 93
2019-11-20 00:00:00 0.1 4 Sudeste 6 Sudeste 0 -- -- 93
2019-11-19 23:00:00 0.3 0 Calma 5 Oeste 0 -- -- 93
2019-11-19 22:00:00 0.8 3 Este 4 Este 0 -- -- 89
2019-11-19 21:00:00 1.9 0 Calma 4 Oeste 0 -- -- 88
2019-11-19 20:00:00 2.1 0 Calma 9 Oeste 0 -- -- 86
2019-11-19 19:00:00 3 6 Oeste 9 Oeste 0 -- -- 83
2019-11-19 18:00:00 4 6 Noroeste 15 Noroeste 0 -- -- 79
2019-11-19 17:00:00 5.5 9 Noroeste 20 Noroeste 0 -- -- 75
2019-11-19 16:00:00 6.9 14 Noroeste 30 Oeste 0 -- -- 71
2019-11-19 15:00:00 7.3 23 Noroeste 31 Noroeste 0 -- -- 62
2019-11-19 14:00:00 7.5 20 Oeste 32 Oeste 0 -- -- 67
2019-11-19 13:00:00 5.8 16 Noroeste 24 Noroeste 0 -- -- 74
2019-11-19 12:00:00 4.1 4 Norte 10 Norte 0 -- -- 94
2019-11-19 11:00:00 0.7 3 Sudeste 4 Sudeste 0 -- -- 100
2019-11-19 10:00:00 -1.7 0 Calma 11 Noroeste 0 -- -- 98
2019-11-19 09:00:00 -2.3 6 Noroeste 10 Noroeste 0 -- -- 96
2019-11-19 08:00:00 -3.2 3 Noroeste 4 Noroeste 0 -- -- 95
2019-11-19 07:00:00 -2.4 2 Oeste 5 Oeste 0 -- -- 93
2019-11-19 06:00:00 -2.8 0 Calma 6 Oeste 0 -- -- 95
2019-11-19 05:00:00 -1.3 0 Calma 3 Este 0 -- -- 94
2019-11-19 04:00:00 -1.2 0 Calma 8 Oeste 0 -- -- 92
2019-11-19 03:00:00 -0.5 4 Sudoeste 10 Noroeste 0 -- -- 93
2019-11-19 02:00:00 -0.2 6 Oeste 21 Noroeste 0 -- -- 90
2019-11-19 01:00:00 0.6 13 Noroeste 22 Noroeste 0 -- -- 89
2019-11-19 00:00:00 0.7 15 Noroeste 24 Noroeste 0 -- -- 89
2019-11-18 23:00:00 1 18 Noroeste 24 Oeste 0 -- -- 85
2019-11-18 22:00:00 1.1 13 Noroeste 24 Noroeste 0 -- -- 85
2019-11-18 21:00:00 1.6 18 Noroeste 30 Noroeste 0 -- -- 83
2019-11-18 20:00:00 2.5 21 Noroeste 39 Noroeste 0 -- -- 75
2019-11-18 19:00:00 2.8 26 Noroeste 37 Oeste 0 -- -- 77
2019-11-18 18:00:00 4.1 25 Noroeste 36 Oeste 0 -- -- 78
2019-11-18 17:00:00 4.9 24 Noroeste 41 Noroeste 0 -- -- 73
2019-11-18 16:00:00 5.7 28 Noroeste 51 Noroeste 0 -- -- 69
2019-11-18 15:00:00 5.5 30 Noroeste 47 Noroeste 0 -- -- 72
2019-11-18 14:00:00 5.2 30 Noroeste 53 Noroeste 0 -- -- 80
2019-11-18 13:00:00 4.4 37 Noroeste 53 Noroeste 0 -- -- 80
2019-11-18 12:00:00 4 32 Noroeste 51 Noroeste 0 -- -- 83
2019-11-18 11:00:00 3.1 37 Noroeste 54 Noroeste 0 -- -- 87
2019-11-18 10:00:00 2.3 29 Noroeste 44 Noroeste 0 -- -- 88
2019-11-18 09:00:00 1 22 Noroeste 43 Noroeste 0 -- -- 95
2019-11-18 08:00:00 0.6 23 Noroeste 35 Noroeste 0 -- -- 96
2019-11-18 07:00:00 0.6 19 Noroeste 29 Noroeste 0 -- -- 96
2019-11-18 06:00:00 0.9 20 Noroeste 35 Noroeste 0 -- -- 96
2019-11-18 05:00:00 1.3 21 Noroeste 34 Oeste 0 -- -- 95
2019-11-18 04:00:00 1.3 23 Noroeste 37 Noroeste 0 -- -- 95
2019-11-18 03:00:00 1.5 31 Noroeste 40 Oeste 0 -- -- 94
2019-11-18 02:00:00 1.7 32 Oeste 44 Oeste 0 -- -- 92
2019-11-18 01:00:00 1.6 28 Noroeste 41 Noroeste 0 -- -- 93
2019-11-18 00:00:00 2.2 21 Oeste 32 Oeste 0 -- -- 91
2019-11-17 23:00:00 2.9 28 Noroeste 41 Oeste 0 -- -- 90
2019-11-17 22:00:00 3.4 15 Oeste 23 Oeste 0 -- -- 91
2019-11-17 21:00:00 4.2 13 Oeste 30 Oeste 0 -- -- 93
2019-11-17 20:00:00 4.1 19 Oeste 50 Oeste 1.6 -- -- 94
2019-11-17 19:00:00 5.8 19 Oeste 31 Oeste 0.2 -- -- 95
2019-11-17 18:00:00 4.4 12 Oeste 34 Sudoeste 1.4 -- -- 97
2019-11-17 17:00:00 3.9 16 Sudoeste 30 Sudoeste 1.2 -- -- 97
2019-11-17 16:00:00 4.3 21 Sudoeste 41 Sudoeste 1.4 -- -- 96
2019-11-17 15:00:00 3.6 28 Sudoeste 38 Sudoeste 0.8 -- -- 96
2019-11-17 14:00:00 3.8 23 Sudoeste 37 Sudoeste 1.2 -- -- 94
2019-11-17 13:00:00 3.9 26 Sudoeste 41 Sudoeste 1 -- -- 91
2019-11-17 12:00:00 3.4 27 Sur 38 Sudoeste 1 -- -- 89
2019-11-17 11:00:00 3.3 26 Sudoeste 35 Sudoeste 0.2 -- -- 88
2019-11-17 10:00:00 3.4 14 Sudoeste 22 Sudoeste 0 -- -- 88
2019-11-17 09:00:00 2.1 3 Oeste 17 Sur 0 -- -- 89
2019-11-17 08:00:00 1.8 5 Sur 25 Oeste 0 -- -- 89
2019-11-17 07:00:00 2.3 18 Noroeste 30 Oeste 0 -- -- 90
2019-11-17 06:00:00 2 21 Oeste 31 Oeste 0 -- -- 90
2019-11-17 05:00:00 1.6 15 Oeste 28 Oeste 0 -- -- 91
2019-11-17 04:00:00 1.1 13 Oeste 36 Oeste 0 -- -- 89
2019-11-17 03:00:00 0.6 18 Oeste 31 Oeste 0 -- -- 91
2019-11-17 02:00:00 0.6 17 Oeste 27 Noroeste 0 -- -- 90
2019-11-17 01:00:00 0.8 20 Oeste 33 Noroeste 0 -- -- 89
2019-11-17 00:00:00 1.2 17 Noroeste 33 Oeste 0 -- -- 88
2019-11-16 23:00:00 1.6 22 Oeste 30 Oeste 0 -- -- 89
2019-11-16 22:00:00 1.9 10 Oeste 35 Noroeste 0 -- -- 86
2019-11-16 21:00:00 2.5 21 Oeste 33 Oeste 0 -- -- 85
2019-11-16 20:00:00 2.5 13 Oeste 29 Oeste 0 -- -- 83
2019-11-16 19:00:00 2.9 21 Oeste 32 Oeste 0 -- -- 79
2019-11-16 18:00:00 3.2 17 Oeste 31 Oeste 0 -- -- 78
2019-11-16 17:00:00 3.8 28 Oeste 41 Oeste 0 -- -- 75
2019-11-16 16:00:00 3.9 27 Noroeste 37 Noroeste 0 -- -- 74
2019-11-16 15:00:00 4.4 30 Noroeste 42 Noroeste 0 -- -- 75
2019-11-16 14:00:00 3.8 26 Noroeste 41 Oeste 0 -- -- 80
2019-11-16 13:00:00 1.8 15 Noroeste 31 Oeste 0 -- -- 90
2019-11-16 12:00:00 0.7 24 Noroeste 40 Noroeste 0.4 -- -- 91
2019-11-16 11:00:00 0.4 23 Noroeste 39 Noroeste 0.2 -- -- 92
2019-11-16 10:00:00 0.4 22 Noroeste 29 Noroeste 0.2 -- -- 91
2019-11-16 09:00:00 -0.2 17 Noroeste 24 Noroeste 0 -- -- 95
2019-11-16 08:00:00 -0.5 18 Noroeste 31 Noroeste 0 -- -- 96
2019-11-16 07:00:00 -0.5 22 Noroeste 33 Noroeste 0 -- -- 95
2019-11-16 06:00:00 -0.4 19 Noroeste 33 Noroeste 0 -- -- 95
2019-11-16 05:00:00 -0.3 21 Noroeste 31 Noroeste 0 -- -- 96
2019-11-16 04:00:00 0 18 Noroeste 29 Noroeste 0 -- -- 96
2019-11-16 03:00:00 0.3 15 Noroeste 29 Noroeste 0 -- -- 96
2019-11-16 02:00:00 0.3 13 Noroeste 31 Noroeste 0 -- -- 96
2019-11-16 01:00:00 0.5 22 Noroeste 35 Noroeste 0 -- -- 97
2019-11-16 00:00:00 0.6 22 Noroeste 31 Noroeste 0.4 -- -- 98
2019-11-15 23:00:00 0.5 18 Noroeste 24 Oeste 0.2 -- -- 99
2019-11-15 22:00:00 0.2 4 Oeste 15 Noroeste 0 -- -- 99
2019-11-15 21:00:00 0.2 14 Noroeste 38 Noroeste 0.6 -- -- 98
2019-11-15 20:00:00 0.5 14 Noroeste 22 Noroeste 0.2 -- -- 96
2019-11-15 19:00:00 0.9 13 Noroeste 28 Noroeste 0.6 -- -- 95
2019-11-15 18:00:00 2.3 17 Noroeste 42 Oeste 0.4 -- -- 89
2019-11-15 17:00:00 2.9 32 Oeste 50 Oeste 0 -- -- 83
2019-11-15 16:00:00 3.2 25 Oeste 48 Oeste 0 -- -- 81
2019-11-15 15:00:00 3.4 26 Oeste 43 Oeste 0 -- -- 84
2019-11-15 14:00:00 3.3 27 Oeste 50 Oeste 0 -- -- 84
2019-11-15 13:00:00 2.4 35 Oeste 55 Oeste 0 -- -- 86
2019-11-15 12:00:00 2 36 Oeste 51 Oeste 0 -- -- 90
2019-11-15 11:00:00 1.9 30 Oeste 50 Noroeste 0 -- -- 90
2019-11-15 10:00:00 1.4 29 Oeste 49 Oeste 0 -- -- 91
2019-11-15 09:00:00 1.1 29 Oeste 45 Oeste 0 -- -- 92
2019-11-15 08:00:00 1 29 Oeste 40 Oeste 0 -- -- 93
2019-11-15 07:00:00 0.9 28 Oeste 41 Noroeste 0 -- -- 94
2019-11-15 06:00:00 0.7 30 Noroeste 49 Noroeste 0 -- -- 95
2019-11-15 05:00:00 0.3 25 Noroeste 39 Noroeste 0 -- -- 95
2019-11-15 04:00:00 0.4 15 Noroeste 45 Noroeste 0 -- -- 94
2019-11-15 03:00:00 0.4 34 Noroeste 48 Noroeste 0 -- -- 93
2019-11-15 02:00:00 0.5 23 Noroeste 36 Noroeste 0.2 -- -- 94
2019-11-15 01:00:00 0.9 27 Noroeste 42 Noroeste 0 -- -- 94
2019-11-15 00:00:00 0.9 26 Noroeste 41 Noroeste 0 -- -- 95
2019-11-14 23:00:00 0.7 23 Noroeste 37 Noroeste 0 -- -- 94
2019-11-14 22:00:00 0.6 28 Noroeste 41 Noroeste 0 -- -- 94
2019-11-14 21:00:00 0.6 23 Noroeste 49 Noroeste 0 -- -- 95
2019-11-14 20:00:00 1.2 18 Noroeste 43 Noroeste 0 -- -- 93
2019-11-14 19:00:00 1.6 16 Oeste 36 Oeste 0.4 -- -- 94
2019-11-14 18:00:00 1.2 16 Sudoeste 40 Sudoeste 0.2 -- -- 92
2019-11-14 17:00:00 3.3 21 Sudoeste 51 Oeste 0 -- -- 74
2019-11-14 16:00:00 3.5 39 Oeste 58 Oeste 0 -- -- 71
2019-11-14 15:00:00 4.3 36 Oeste 51 Oeste 0 -- -- 63
2019-11-14 14:00:00 4.4 36 Oeste 64 Oeste 0 -- -- 65
2019-11-14 13:00:00 3.6 33 Oeste 60 Oeste 0 -- -- 71
2019-11-14 12:00:00 3.6 38 Oeste 57 Noroeste 0 -- -- 70
2019-11-14 11:00:00 2.7 39 Noroeste 61 Oeste 0 -- -- 82
2019-11-14 10:00:00 2.2 40 Oeste 60 Oeste 0 -- -- 86
2019-11-14 09:00:00 2.1 27 Oeste 42 Oeste 0.2 -- -- 87
2019-11-14 08:00:00 1.4 15 Oeste 53 Oeste 0.8 -- -- 96
2019-11-14 07:00:00 1.3 31 Oeste 72 Noroeste 1.8 -- -- 94
2019-11-14 06:00:00 5.4 27 Oeste 50 Oeste 1.2 -- -- 86
2019-11-14 05:00:00 6.8 33 Oeste 56 Oeste 0 -- -- 73
2019-11-14 04:00:00 6.4 34 Oeste 54 Oeste 0 -- -- 73
2019-11-14 03:00:00 6.5 21 Oeste 44 Oeste 0 -- -- 69
2019-11-14 02:00:00 7.1 11 Oeste 39 Oeste 0 -- -- 75
2019-11-14 01:00:00 7.9 12 Oeste 21 Oeste 0 -- -- 74
2019-11-14 00:00:00 7.6 8 Oeste 14 Oeste 0 -- -- 75
2019-11-13 23:00:00 6.5 7 Oeste 19 Oeste 0 -- -- 80
2019-11-13 22:00:00 6.9 13 Oeste 30 Sudoeste 0 -- -- 77
2019-11-13 21:00:00 6.7 21 Sudoeste 33 Sudoeste 0 -- -- 77
2019-11-13 20:00:00 6.9 22 Sur 32 Oeste 0 -- -- 76
2019-11-13 19:00:00 8 17 Oeste 29 Oeste 0 -- -- 78
2019-11-13 18:00:00 8 9 Oeste 21 Oeste 0 -- -- 78
2019-11-13 17:00:00 8.7 18 Noroeste 37 Oeste 0 -- -- 74
2019-11-13 16:00:00 9.2 26 Noroeste 46 Noroeste 0 -- -- 71
2019-11-13 15:00:00 10 30 Noroeste 46 Noroeste 0 -- -- 66
2019-11-13 14:00:00 9.7 32 Noroeste 46 Oeste 0 -- -- 65
2019-11-13 13:00:00 9 23 Noroeste 36 Noroeste 0 -- -- 72
2019-11-13 12:00:00 8.3 24 Noroeste 39 Noroeste 0 -- -- 81
2019-11-13 11:00:00 7.3 27 Noroeste 37 Noroeste 0 -- -- 86
2019-11-13 10:00:00 6.5 26 Noroeste 37 Noroeste 0 -- -- 93
2019-11-13 09:00:00 6.8 12 Norte 36 Norte 0 -- -- 96
2019-11-13 08:00:00 7.6 27 Noroeste 43 Noroeste 0.2 -- -- 96
2019-11-13 07:00:00 8.7 32 Noroeste 56 Noroeste 2.4 -- -- 96
2019-11-13 06:00:00 9 39 Oeste 54 Noroeste 0.6 -- -- 95
2019-11-13 05:00:00 7 8 Sur 12 Sur 3.6 -- -- 98
2019-11-13 04:00:00 6.5 4 Sudeste 17 Sudoeste 2.8 -- -- 97
2019-11-13 03:00:00 6.1 5 Oeste 32 Sudoeste 3.4 -- -- 96
2019-11-13 02:00:00 5.9 21 Sudoeste 29 Sudoeste 1.2 -- -- 96
2019-11-13 01:00:00 5.6 17 Sur 26 Sudoeste 0.2 -- -- 95
2019-11-13 00:00:00 5.1 14 Sur 30 Sudoeste 0.2 -- -- 94
2019-11-12 23:00:00 5 22 Sudoeste 36 Sudoeste 0.2 -- -- 91
2019-11-12 22:00:00 5.1 25 Sudoeste 31 Sudoeste 0.8 -- -- 91
2019-11-12 21:00:00 5.1 9 Sudoeste 18 Oeste 1 -- -- 88
2019-11-12 20:00:00 5.3 10 Oeste 35 Oeste 0 -- -- 86
2019-11-12 19:00:00 5.9 21 Oeste 32 Oeste 0 -- -- 78
2019-11-12 18:00:00 6.1 17 Oeste 32 Oeste 0 -- -- 76
2019-11-12 17:00:00 6.6 21 Oeste 33 Noroeste 0 -- -- 74
2019-11-12 16:00:00 6.5 21 Noroeste 33 Oeste 0 -- -- 75
2019-11-12 15:00:00 6.3 16 Noroeste 34 Oeste 0 -- -- 77
2019-11-12 14:00:00 6.5 26 Noroeste 41 Noroeste 0 -- -- 75
2019-11-12 13:00:00 6.3 32 Noroeste 42 Oeste 0 -- -- 75
2019-11-12 12:00:00 5.9 24 Oeste 37 Oeste 0 -- -- 76
2019-11-12 11:00:00 4.3 30 Noroeste 46 Oeste 0 -- -- 82
2019-11-12 10:00:00 3.2 23 Noroeste 34 Noroeste 0 -- -- 90
2019-11-12 09:00:00 2.4 11 Noroeste 21 Noroeste 0 -- -- 94
2019-11-12 08:00:00 1.8 3 Noroeste 19 Noroeste 0 -- -- 95
2019-11-12 07:00:00 1.3 17 Noroeste 30 Oeste 0 -- -- 96
2019-11-12 06:00:00 1.4 20 Noroeste 34 Noroeste 0 -- -- 93
2019-11-12 05:00:00 1.6 14 Noroeste 28 Oeste 0 -- -- 92
2019-11-12 04:00:00 1.9 10 Noroeste 19 Noroeste 0 -- -- 89
2019-11-12 03:00:00 1.7 8 Noroeste 21 Noroeste 0 -- -- 91
2019-11-12 02:00:00 1.3 6 Noroeste 13 Noroeste 0 -- -- 93
2019-11-12 01:00:00 1.4 8 Noroeste 13 Noroeste 0 -- -- 93
2019-11-12 00:00:00 1.7 6 Noroeste 12 Noroeste 0 -- -- 91
2019-11-11 23:00:00 2 2 Norte 23 Noroeste 0 -- -- 91
2019-11-11 22:00:00 2.9 17 Noroeste 26 Noroeste 0 -- -- 89
2019-11-11 21:00:00 3.1 8 Norte 30 Noroeste 0 -- -- 88
2019-11-11 20:00:00 4 16 Noroeste 34 Noroeste 0 -- -- 85
2019-11-11 19:00:00 4.9 27 Noroeste 40 Noroeste 0 -- -- 80
2019-11-11 18:00:00 5.7 23 Noroeste 51 Noroeste 0 -- -- 74
2019-11-11 17:00:00 6.8 30 Noroeste 53 Noroeste 0 -- -- 81
2019-11-11 16:00:00 7.1 31 Noroeste 47 Noroeste 0 -- -- 83
2019-11-11 15:00:00 7.1 30 Noroeste 45 Noroeste 0 -- -- 91
2019-11-11 14:00:00 7 22 Noroeste 38 Noroeste 0.2 -- -- 91
2019-11-11 13:00:00 6.8 29 Noroeste 41 Oeste 0 -- -- 86
2019-11-11 12:00:00 6.2 28 Noroeste 38 Oeste 0 -- -- 87
2019-11-11 11:00:00 5.2 23 Noroeste 35 Noroeste 0 -- -- 87
2019-11-11 10:00:00 4.5 21 Noroeste 28 Noroeste 0 -- -- 88
2019-11-11 09:00:00 3.5 18 Noroeste 25 Oeste 0 -- -- 90
2019-11-11 08:00:00 2.9 11 Noroeste 18 Oeste 0 -- -- 91
2019-11-11 07:00:00 2.7 11 Noroeste 31 Noroeste 0 -- -- 91
2019-11-11 06:00:00 2.4 18 Noroeste 31 Noroeste 0 -- -- 93
2019-11-11 05:00:00 2.3 13 Noroeste 31 Noroeste 0 -- -- 92
2019-11-11 04:00:00 2.4 21 Noroeste 36 Noroeste 0 -- -- 93
2019-11-11 03:00:00 2.3 23 Noroeste 33 Noroeste 0 -- -- 95
2019-11-11 02:00:00 2.1 24 Noroeste 33 Oeste 0 -- -- 96
2019-11-11 01:00:00 1.8 14 Noroeste 31 Noroeste 0 -- -- 97
2019-11-11 00:00:00 1.7 24 Noroeste 32 Noroeste 0 -- -- 94